createdAt,value
2019-03-31T00:03:57.970Z,10.27
2019-03-31T00:06:46.805Z,8.98
2019-03-31T00:09:35.672Z,9.82
2019-03-31T00:12:24.486Z,9.81
2019-03-31T00:15:13.377Z,9.89
2019-03-31T00:18:02.172Z,8.35
2019-03-31T00:20:51.054Z,8.51
2019-03-31T00:23:39.846Z,9.74
2019-03-31T00:26:28.664Z,9.65
2019-03-31T00:29:17.454Z,9.42
2019-03-31T00:32:06.649Z,9.53
2019-03-31T00:34:55.494Z,7.97
2019-03-31T00:37:44.329Z,7.97
2019-03-31T00:40:33.145Z,9.50
2019-03-31T00:43:21.959Z,8.19
2019-03-31T00:46:10.761Z,9.64
2019-03-31T00:48:52.581Z,9.57
2019-03-31T00:51:41.392Z,9.44
2019-03-31T00:54:30.194Z,9.44
2019-03-31T00:57:19.006Z,9.34
2019-03-31T01:03:04.184Z,9.22
2019-03-31T01:05:52.998Z,9.18
2019-03-31T01:08:41.792Z,8.76
2019-03-31T01:11:30.671Z,9.32
2019-03-31T01:26:57.539Z,9.07
2019-03-31T01:29:46.353Z,9.09
2019-03-31T01:35:44.550Z,9.00
2019-03-31T01:38:33.348Z,8.98
2019-03-31T01:41:22.157Z,7.69
2019-03-31T01:44:10.960Z,8.84
2019-03-31T01:46:59.887Z,8.49
2019-03-31T01:49:41.521Z,6.89
2019-03-31T01:52:30.406Z,8.30
2019-03-31T01:58:27.127Z,8.33
2019-03-31T02:04:25.386Z,8.48
2019-03-31T02:07:14.182Z,8.30
2019-03-31T02:12:58.755Z,8.13
2019-03-31T02:15:47.559Z,8.19
2019-03-31T02:18:36.388Z,8.15
2019-03-31T02:21:25.173Z,7.92
2019-03-31T02:24:13.986Z,8.04
2019-03-31T02:26:55.775Z,8.06
2019-03-31T02:30:03.626Z,8.07
2019-03-31T02:32:52.418Z,8.09
2019-03-31T02:36:01.893Z,8.16
2019-03-31T02:38:50.693Z,8.04
2019-03-31T02:41:39.523Z,8.09
2019-03-31T02:44:28.335Z,8.11
2019-03-31T02:47:17.155Z,8.07
2019-03-31T02:50:26.870Z,7.98
2019-03-31T02:53:36.593Z,7.94
2019-03-31T02:56:46.307Z,7.81
2019-03-31T02:59:56.041Z,7.78
2019-03-31T03:02:44.905Z,7.75
2019-03-31T03:05:54.649Z,7.72
2019-03-31T03:12:14.045Z,7.58
2019-03-31T03:15:23.747Z,7.59
2019-03-31T03:18:12.567Z,7.48
2019-03-31T03:21:01.447Z,7.32
2019-03-31T03:27:04.959Z,6.31
2019-03-31T03:29:53.799Z,7.52
2019-03-31T03:32:35.725Z,7.39
2019-03-31T03:35:24.596Z,7.51
2019-03-31T03:38:13.483Z,6.21
2019-03-31T03:41:02.283Z,7.60
2019-03-31T03:43:55.781Z,7.43
2019-03-31T03:46:41.612Z,7.46
2019-03-31T03:49:23.211Z,7.47
2019-03-31T03:52:12.023Z,7.61
2019-03-31T03:55:00.845Z,7.63
2019-03-31T03:57:49.641Z,7.65
2019-03-31T04:00:38.462Z,7.59
2019-03-31T04:03:46.275Z,7.52
2019-03-31T04:06:35.096Z,7.36
2019-03-31T04:09:23.898Z,5.04
2019-03-31T04:12:12.720Z,6.80
2019-03-31T04:15:01.521Z,6.88
2019-03-31T04:17:50.334Z,6.62
2019-03-31T04:20:39.724Z,5.23
2019-03-31T04:23:29.683Z,5.79
2019-03-31T04:26:18.507Z,5.46
2019-03-31T04:29:07.308Z,6.61
2019-03-31T04:31:56.110Z,6.70
2019-03-31T04:34:44.940Z,6.67
2019-03-31T04:37:33.729Z,6.77
2019-03-31T04:40:22.550Z,6.75
2019-03-31T04:43:11.356Z,6.13
2019-03-31T04:46:00.514Z,6.75
2019-03-31T04:48:49.380Z,6.93
2019-03-31T04:51:30.775Z,5.25
2019-03-31T04:54:19.627Z,7.04
2019-03-31T04:57:27.464Z,7.12
2019-03-31T05:00:35.283Z,7.17
2019-03-31T05:03:24.166Z,7.19
2019-03-31T05:06:12.965Z,7.13
2019-03-31T05:09:01.794Z,5.84
2019-03-31T05:11:50.587Z,7.28
2019-03-31T05:14:39.476Z,6.10
2019-03-31T05:17:28.283Z,7.10
2019-03-31T05:20:17.099Z,7.02
2019-03-31T05:23:05.897Z,6.96
2019-03-31T05:25:54.719Z,6.99
2019-03-31T05:28:44.288Z,7.16
2019-03-31T05:31:27.286Z,7.33
2019-03-31T05:33:56.745Z,7.29
2019-03-31T05:36:45.555Z,7.36
2019-03-31T05:39:34.371Z,7.42
2019-03-31T05:42:23.203Z,7.53
2019-03-31T05:45:31.392Z,5.79
2019-03-31T05:48:20.233Z,6.95
2019-03-31T05:51:09.046Z,7.11
2019-03-31T05:53:57.867Z,6.90
2019-03-31T05:56:46.663Z,7.01
2019-03-31T05:59:35.479Z,7.29
2019-03-31T06:02:24.304Z,6.38
2019-03-31T06:05:13.112Z,7.85
2019-03-31T06:08:01.928Z,7.98
2019-03-31T06:10:50.764Z,8.13
2019-03-31T06:13:39.578Z,8.09
2019-03-31T06:16:28.377Z,8.24
2019-03-31T06:19:17.196Z,8.18
2019-03-31T06:22:05.996Z,8.45
2019-03-31T06:24:54.815Z,8.60
2019-03-31T06:27:43.659Z,8.59
2019-03-31T06:30:32.521Z,8.83
2019-03-31T06:33:14.055Z,8.91
2019-03-31T06:36:02.872Z,9.12
2019-03-31T06:38:51.685Z,9.09
2019-03-31T06:41:40.478Z,9.20
2019-03-31T06:44:29.294Z,9.21
2019-03-31T06:47:18.147Z,9.33
2019-03-31T06:50:26.298Z,9.46
2019-03-31T06:53:15.094Z,9.73
2019-03-31T06:56:03.979Z,9.94
2019-03-31T07:02:03.058Z,10.44
2019-03-31T07:05:00.889Z,10.69
2019-03-31T07:07:41.633Z,10.18
2019-03-31T07:10:30.441Z,11.41
2019-03-31T07:19:28.421Z,12.37
2019-03-31T07:22:17.233Z,12.79
2019-03-31T07:25:27.329Z,13.21
2019-03-31T07:28:16.134Z,13.29
2019-03-31T07:31:04.967Z,13.60
2019-03-31T07:33:47.003Z,13.69
2019-03-31T07:36:35.824Z,13.82
2019-03-31T07:39:24.891Z,14.01
2019-03-31T07:42:15.244Z,14.14
2019-03-31T07:48:33.026Z,14.65
2019-03-31T07:51:14.803Z,14.65
2019-03-31T07:54:03.644Z,14.68
2019-03-31T07:56:53.140Z,13.84
2019-03-31T07:59:43.003Z,14.59
2019-03-31T08:05:39.555Z,15.36
2019-03-31T08:08:28.367Z,15.52
2019-03-31T08:11:17.427Z,14.99
2019-03-31T08:14:07.716Z,15.93
2019-03-31T08:16:56.550Z,16.23
2019-03-31T08:19:45.356Z,16.36
2019-03-31T08:22:53.210Z,15.28
2019-03-31T08:25:42.003Z,16.72
2019-03-31T08:28:30.823Z,15.22
2019-03-31T08:31:19.639Z,16.22
2019-03-31T08:34:01.142Z,16.47
2019-03-31T08:37:09.040Z,16.53
2019-03-31T08:39:57.864Z,16.45
2019-03-31T08:42:46.673Z,16.04
2019-03-31T08:45:35.510Z,15.90
2019-03-31T08:48:24.383Z,15.97
2019-03-31T08:51:13.229Z,15.94
2019-03-31T08:54:02.098Z,15.51
2019-03-31T08:56:50.932Z,16.33
2019-03-31T08:59:39.774Z,16.39
2019-03-31T09:05:28.129Z,16.65
2019-03-31T09:08:16.935Z,17.28
2019-03-31T09:11:06.271Z,16.50
2019-03-31T09:14:14.115Z,15.80
2019-03-31T09:17:02.938Z,17.30
2019-03-31T09:19:51.769Z,17.46
2019-03-31T09:22:40.662Z,17.37
2019-03-31T09:28:23.682Z,17.08
2019-03-31T09:31:12.542Z,16.97
2019-03-31T09:34:01.356Z,16.49
2019-03-31T09:36:50.181Z,14.73
2019-03-31T09:39:39.051Z,15.94
2019-03-31T09:42:27.870Z,15.58
2019-03-31T09:45:16.935Z,15.81
2019-03-31T09:48:05.812Z,14.85
2019-03-31T09:50:56.557Z,16.02
2019-03-31T09:53:45.466Z,15.41
2019-03-31T09:56:34.266Z,15.34
2019-03-31T09:59:23.098Z,15.42
2019-03-31T10:02:11.894Z,15.15
2019-03-31T10:05:00.711Z,14.92
2019-03-31T10:07:49.585Z,16.42
2019-03-31T10:10:38.410Z,16.34
2019-03-31T10:13:27.295Z,16.81
2019-03-31T10:16:35.388Z,17.23
2019-03-31T10:19:43.282Z,17.58
2019-03-31T10:22:32.112Z,17.47
2019-03-31T10:25:20.914Z,17.73
2019-03-31T10:28:09.745Z,17.68
2019-03-31T10:30:58.557Z,17.62
2019-03-31T10:33:47.381Z,17.84
2019-03-31T10:36:28.678Z,17.60
2019-03-31T10:39:17.507Z,17.66
2019-03-31T10:42:06.317Z,17.60
2019-03-31T10:44:55.137Z,17.15
2019-03-31T10:47:43.952Z,17.30
2019-03-31T10:50:32.779Z,16.31
2019-03-31T10:53:21.603Z,16.59
2019-03-31T10:56:29.453Z,17.52
2019-03-31T10:59:18.268Z,18.17
2019-03-31T11:02:07.095Z,18.86
2019-03-31T11:04:55.894Z,19.43
2019-03-31T11:07:44.721Z,19.18
2019-03-31T11:14:01.937Z,18.90
2019-03-31T11:16:50.768Z,19.38
2019-03-31T11:19:39.598Z,19.19
2019-03-31T11:22:47.447Z,19.60
2019-03-31T11:25:36.249Z,18.53
2019-03-31T11:28:32.531Z,19.78
2019-03-31T11:31:21.337Z,19.92
2019-03-31T11:34:10.179Z,19.13
2019-03-31T11:36:52.205Z,18.12
2019-03-31T11:39:41.017Z,17.68
2019-03-31T11:42:29.822Z,16.48
2019-03-31T11:45:18.641Z,17.05
2019-03-31T11:51:15.288Z,17.17
2019-03-31T11:54:04.157Z,17.15
2019-03-31T11:56:52.979Z,17.58
2019-03-31T11:59:41.790Z,17.96
2019-03-31T12:02:30.614Z,17.30
2019-03-31T12:05:19.488Z,16.62
2019-03-31T12:08:08.335Z,16.96
2019-03-31T12:10:57.123Z,16.88
2019-03-31T12:13:45.945Z,17.41
2019-03-31T12:16:34.757Z,17.10
2019-03-31T12:19:23.576Z,17.02
2019-03-31T12:22:31.407Z,17.57
2019-03-31T12:25:20.284Z,17.41
2019-03-31T12:28:09.125Z,17.26
2019-03-31T12:30:57.960Z,17.88
2019-03-31T12:33:46.770Z,17.49
2019-03-31T12:36:28.530Z,17.65
2019-03-31T12:39:17.332Z,18.08
2019-03-31T12:42:06.226Z,17.83
2019-03-31T12:44:55.052Z,17.31
2019-03-31T12:47:43.886Z,17.67
2019-03-31T12:50:32.694Z,17.60
2019-03-31T12:53:21.522Z,16.53
2019-03-31T12:56:29.619Z,18.04
2019-03-31T12:59:18.444Z,17.52
2019-03-31T13:02:07.246Z,17.83
2019-03-31T13:04:56.081Z,17.77
2019-03-31T13:07:55.797Z,16.68
2019-03-31T13:10:35.701Z,17.79
2019-03-31T13:13:24.534Z,17.00
2019-03-31T13:16:13.353Z,17.32
2019-03-31T13:19:21.192Z,16.22
2019-03-31T13:22:10.012Z,17.22
2019-03-31T13:25:02.171Z,17.49
2019-03-31T13:27:49.359Z,17.12
2019-03-31T13:33:47.562Z,17.92
2019-03-31T13:36:29.206Z,17.15
2019-03-31T13:39:18.026Z,17.20
2019-03-31T13:42:06.834Z,16.51
2019-03-31T13:44:55.647Z,14.81
2019-03-31T13:47:44.457Z,15.84
2019-03-31T13:50:33.284Z,15.00
2019-03-31T13:53:22.095Z,15.42
2019-03-31T13:56:11.465Z,15.15
2019-03-31T13:59:01.520Z,15.09
2019-03-31T14:01:50.350Z,15.14
2019-03-31T14:07:46.920Z,13.77
2019-03-31T14:10:35.727Z,14.62
2019-03-31T14:13:24.555Z,14.47
2019-03-31T14:16:13.365Z,14.56
2019-03-31T14:19:02.197Z,14.27
2019-03-31T14:21:51.046Z,14.07
2019-03-31T14:24:39.872Z,14.34
2019-03-31T14:27:28.675Z,14.26
2019-03-31T14:30:17.668Z,14.55
2019-03-31T14:33:06.478Z,14.79
2019-03-31T14:35:55.317Z,13.80
2019-03-31T14:38:40.350Z,14.64
2019-03-31T14:41:27.673Z,14.67
2019-03-31T14:44:16.502Z,13.97
2019-03-31T14:47:05.304Z,13.76
2019-03-31T14:49:54.122Z,14.90
2019-03-31T14:52:42.929Z,13.80
2019-03-31T14:55:31.768Z,15.10
2019-03-31T14:58:20.577Z,15.29
2019-03-31T15:01:09.404Z,15.12
2019-03-31T15:07:26.681Z,15.36
2019-03-31T15:10:15.476Z,15.37
2019-03-31T15:16:19.385Z,15.55
2019-03-31T15:22:15.955Z,15.46
2019-03-31T15:25:25.677Z,15.63
2019-03-31T15:28:14.518Z,15.43
2019-03-31T15:31:03.323Z,15.44
2019-03-31T15:33:52.181Z,14.38
2019-03-31T15:39:42.019Z,16.55
2019-03-31T15:42:30.822Z,17.99
2019-03-31T15:45:19.635Z,18.68
2019-03-31T15:48:08.475Z,19.54
2019-03-31T15:50:57.291Z,19.51
2019-03-31T15:53:46.121Z,20.14
2019-03-31T15:56:34.948Z,20.55
2019-03-31T15:59:23.837Z,20.70
2019-03-31T16:02:12.670Z,21.03
2019-03-31T16:05:01.492Z,20.85
2019-03-31T16:07:50.325Z,21.15
2019-03-31T16:10:39.130Z,20.89
2019-03-31T16:13:27.968Z,19.61
2019-03-31T16:16:16.780Z,20.99
2019-03-31T16:19:05.599Z,21.31
2019-03-31T16:21:54.424Z,20.67
2019-03-31T16:25:02.277Z,20.40
2019-03-31T16:27:51.083Z,19.70
2019-03-31T16:30:39.912Z,18.71
2019-03-31T16:33:28.728Z,17.91
2019-03-31T16:36:17.553Z,17.95
2019-03-31T16:38:58.888Z,17.11
2019-03-31T16:41:47.975Z,15.27
2019-03-31T16:44:36.778Z,16.12
2019-03-31T16:47:25.620Z,15.74
2019-03-31T16:50:34.163Z,15.94
2019-03-31T16:53:22.985Z,15.93
2019-03-31T16:56:11.792Z,15.58
2019-03-31T16:59:00.610Z,14.52
2019-03-31T17:01:49.418Z,15.60
2019-03-31T17:04:38.234Z,15.62
2019-03-31T17:07:27.054Z,15.35
2019-03-31T17:10:35.039Z,13.62
2019-03-31T17:13:23.925Z,14.65
2019-03-31T17:16:15.330Z,14.90
2019-03-31T17:19:03.354Z,14.53
2019-03-31T17:22:11.185Z,14.62
2019-03-31T17:24:59.974Z,14.41
2019-03-31T17:27:48.805Z,14.18
2019-03-31T17:30:37.679Z,14.09
2019-03-31T17:33:26.509Z,13.72
2019-03-31T17:36:15.318Z,13.83
2019-03-31T17:42:19.410Z,13.45
2019-03-31T17:48:23.717Z,13.16
2019-03-31T17:51:12.583Z,11.73
2019-03-31T17:54:01.404Z,13.14
2019-03-31T17:57:09.224Z,12.96
2019-03-31T17:59:58.371Z,11.38
2019-03-31T18:02:47.174Z,12.75
2019-03-31T18:05:35.994Z,12.67
2019-03-31T18:08:24.798Z,12.72
2019-03-31T18:11:13.617Z,11.23
2019-03-31T18:14:02.413Z,12.60
2019-03-31T18:16:51.228Z,12.42
2019-03-31T18:19:40.050Z,12.30
2019-03-31T18:22:28.846Z,12.40
2019-03-31T18:25:17.666Z,12.53
2019-03-31T18:27:59.236Z,12.38
2019-03-31T18:30:48.056Z,11.01
2019-03-31T18:33:36.853Z,12.19
2019-03-31T18:36:36.403Z,12.12
2019-03-31T18:39:16.201Z,11.96
2019-03-31T18:42:05.315Z,11.94
2019-03-31T18:44:54.384Z,11.98
2019-03-31T18:47:43.205Z,10.91
2019-03-31T18:50:32.025Z,10.79
2019-03-31T18:53:39.894Z,11.73
2019-03-31T18:56:47.797Z,11.65
2019-03-31T18:59:55.592Z,11.33
2019-03-31T19:03:03.442Z,11.53
2019-03-31T19:06:11.260Z,11.43
2019-03-31T19:09:19.103Z,11.37
2019-03-31T19:12:26.929Z,11.27
2019-03-31T19:15:34.767Z,11.35
2019-03-31T19:21:51.988Z,11.31
2019-03-31T19:24:59.800Z,9.59
2019-03-31T19:31:02.098Z,11.10
2019-03-31T19:34:09.938Z,11.07
2019-03-31T19:37:17.777Z,10.94
2019-03-31T19:40:46.530Z,10.96
2019-03-31T19:43:54.371Z,11.00
2019-03-31T19:53:27.046Z,10.97
2019-03-31T19:56:34.870Z,11.04
2019-03-31T19:59:42.723Z,11.12
2019-03-31T20:05:59.937Z,10.93
2019-03-31T20:09:07.760Z,10.96
2019-03-31T20:12:15.607Z,9.39
2019-03-31T20:18:38.295Z,10.80
2019-03-31T20:24:48.237Z,10.82
2019-03-31T20:31:05.455Z,10.72
2019-03-31T20:34:13.278Z,10.70
2019-03-31T20:37:21.132Z,10.19
2019-03-31T20:43:25.265Z,10.50
2019-03-31T20:46:14.063Z,10.62
2019-03-31T20:49:02.883Z,10.54
2019-03-31T20:51:51.677Z,9.99
2019-03-31T20:54:40.494Z,10.34
2019-03-31T20:57:29.348Z,9.06
2019-03-31T21:00:18.279Z,10.14
2019-03-31T21:03:07.143Z,10.15
2019-03-31T21:05:56.015Z,8.66
2019-03-31T21:08:44.833Z,10.04
2019-03-31T21:11:33.677Z,10.05
2019-03-31T21:14:15.465Z,8.30
2019-03-31T21:17:04.275Z,8.42
2019-03-31T21:19:53.080Z,9.98
2019-03-31T21:22:41.890Z,10.01
2019-03-31T21:25:30.775Z,9.99
2019-03-31T21:28:19.567Z,9.86
2019-03-31T21:31:08.693Z,9.88
2019-03-31T21:37:24.267Z,9.80
2019-03-31T21:40:13.058Z,8.68
2019-03-31T21:43:01.878Z,9.56
2019-03-31T21:46:09.696Z,9.67
2019-03-31T21:48:58.509Z,8.04
2019-03-31T21:51:47.301Z,9.60
2019-03-31T21:54:36.116Z,9.45
2019-03-31T21:57:24.912Z,9.30
2019-03-31T22:00:13.870Z,9.33
2019-03-31T22:06:12.067Z,9.23
2019-03-31T22:09:00.878Z,9.24
2019-03-31T22:11:49.692Z,9.32
2019-03-31T22:14:31.824Z,9.24
2019-03-31T22:17:20.891Z,9.11
2019-03-31T22:26:12.160Z,7.95
2019-03-31T22:29:00.972Z,8.81
2019-03-31T22:31:49.796Z,8.69
2019-03-31T22:34:38.617Z,8.68
2019-03-31T22:37:27.416Z,6.98
2019-03-31T22:40:16.230Z,8.61
2019-03-31T22:43:07.703Z,8.39
2019-03-31T22:45:55.557Z,8.65
2019-03-31T22:48:44.374Z,6.85
2019-03-31T22:54:40.999Z,8.42
2019-03-31T22:57:29.800Z,8.45
2019-03-31T23:03:17.867Z,7.80
2019-03-31T23:06:06.671Z,8.34
2019-03-31T23:08:55.472Z,8.34
2019-03-31T23:11:44.264Z,8.36
2019-03-31T23:14:33.085Z,8.19
2019-03-31T23:17:21.934Z,6.98
2019-03-31T23:20:10.811Z,8.37
2019-03-31T23:22:59.632Z,8.37
2019-03-31T23:25:48.425Z,6.39
2019-03-31T23:31:32.963Z,6.54
2019-03-31T23:34:21.767Z,7.13
2019-03-31T23:37:10.579Z,7.99
2019-03-31T23:39:59.370Z,8.14
2019-03-31T23:42:48.196Z,7.94
2019-03-31T23:45:37.015Z,7.92
2019-03-31T23:48:25.812Z,7.93
2019-03-31T23:51:14.636Z,5.94
2019-03-31T23:54:03.429Z,7.91
2019-03-31T23:56:52.253Z,7.66
2019-03-31T23:59:41.056Z,7.80
